Time;durP1;ratioP1;P1;durP2;ratioP2;P2;SDS_P1;SDS_P2;PMS_P1;PMS_P2;Temp;Humidity;BMP_temperature;BMP_pressure;BME280_temperature;BME280_humidity;BME280_pressure;Samples;Min_cycle;Max_cycle;Signal;HPM_P1;HPM_P2
2023/07/28 00:01:13;;;;;;;19.90;12.75;;;;;;;;;;4996518;28;90334;-75
2023/07/28 00:03:39;;;;;;;20.15;11.55;;;;;;;;;;4994609;28;89927;-75
2023/07/28 00:06:06;;;;;;;22.63;12.13;;;;;;;;;;4998770;28;89110;-75
2023/07/28 00:08:32;;;;;;;20.48;11.95;;;;;;;;;;4995065;28;89593;-74
2023/07/28 00:10:59;;;;;;;19.05;12.07;;;;;;;;;;4994565;28;89456;-73
2023/07/28 00:13:25;;;;;;;22.15;12.27;;;;;;;;;;4989223;28;91071;-73
2023/07/28 00:15:51;;;;;;;23.83;11.75;;;;;;;;;;4992585;28;89177;-73
2023/07/28 00:18:18;;;;;;;19.77;10.80;;;;;;;;;;4994938;28;89049;-74
2023/07/28 00:20:44;;;;;;;25.00;11.73;;;;;;;;;;4995665;28;90929;-75
2023/07/28 00:23:11;;;;;;;25.17;11.25;;;;;;;;;;4993197;28;89214;-72
2023/07/28 00:25:37;;;;;;;20.23;10.50;;;;;;;;;;4996996;28;89617;-72
2023/07/28 00:28:04;;;;;;;17.98;10.55;;;;;;;;;;4999158;28;90033;-73
2023/07/28 00:30:31;;;;;;;21.50;10.88;;;;;;;;;;4993722;28;89104;-73
2023/07/28 00:32:57;;;;;;;18.42;10.55;;;;;;;;;;4996407;28;90316;-73
2023/07/28 00:35:24;;;;;;;17.27;9.63;;;;;;;;;;4996090;28;89744;-73
2023/07/28 00:37:50;;;;;;;19.13;9.80;;;;;;;;;;4995697;28;89629;-74
2023/07/28 00:40:17;;;;;;;25.83;11.43;;;;;;;;;;4994151;28;88043;-73
2023/07/28 00:42:43;;;;;;;21.35;11.38;;;;;;;;;;4994296;28;89217;-73
2023/07/28 00:45:09;;;;;;;22.25;11.10;;;;;;;;;;4994817;28;89470;-73
2023/07/28 00:47:36;;;;;;;16.25;11.13;;;;;;;;;;4994222;28;90009;-73
2023/07/28 00:50:03;;;;;;;19.95;11.63;;;;;;;;;;4997998;28;90016;-74
2023/07/28 00:52:29;;;;;;;25.95;12.50;;;;;;;;;;4993171;28;90190;-74
2023/07/28 00:54:56;;;;;;;22.83;11.65;;;;;;;;;;4992099;28;89547;-73
2023/07/28 00:57:22;;;;;;;21.10;11.48;;;;;;;;;;4996710;28;89125;-73
2023/07/28 00:59:48;;;;;;;19.95;11.07;;;;;;;;;;4991645;28;90062;-73
2023/07/28 01:02:17;;;;;;;26.40;11.23;;;;;;;;;;4994340;28;89690;-73
2023/07/28 01:04:43;;;;;;;19.73;10.50;;;;;;;;;;4992387;28;90275;-74
2023/07/28 01:07:13;;;;;;;20.38;10.38;;;;;;;;;;4992102;28;90043;-75
2023/07/28 01:09:45;;;;;;;21.48;9.52;;;;;;;;;;4994009;28;90108;-74
2023/07/28 01:12:12;;;;;;;19.73;10.05;;;;;;;;;;4994407;28;89303;-74
2023/07/28 01:14:38;;;;;;;19.58;9.30;;;;;;;;;;4992421;28;89498;-74
2023/07/28 01:17:04;;;;;;;20.63;9.45;;;;;;;;;;4993496;28;90342;-74
2023/07/28 01:19:31;;;;;;;20.70;9.40;;;;;;;;;;4995131;28;87843;-76
2023/07/28 01:22:19;;;;;;;21.95;9.52;;;;;;;;;;4995398;28;88307;-74
2023/07/28 01:24:48;;;;;;;23.13;9.30;;;;;;;;;;4993044;28;88214;-74
2023/07/28 01:27:15;;;;;;;22.27;10.02;;;;;;;;;;4996430;28;88840;-73
2023/07/28 01:29:42;;;;;;;20.27;10.10;;;;;;;;;;4994681;28;89941;-73
2023/07/28 01:32:10;;;;;;;23.02;9.70;;;;;;;;;;4992275;28;89200;-73
2023/07/28 01:34:36;;;;;;;19.42;10.43;;;;;;;;;;4996242;28;90062;-73
2023/07/28 01:37:03;;;;;;;31.02;10.15;;;;;;;;;;4992102;28;88997;-74
2023/07/28 01:39:29;;;;;;;26.60;11.80;;;;;;;;;;4993352;28;89302;-73
2023/07/28 01:41:56;;;;;;;32.40;11.77;;;;;;;;;;4993849;28;90023;-73
2023/07/28 01:44:22;;;;;;;31.33;12.73;;;;;;;;;;4995711;28;89128;-72
2023/07/28 01:46:48;;;;;;;29.05;12.02;;;;;;;;;;4994746;28;90146;-72
2023/07/28 01:49:15;;;;;;;28.80;12.55;;;;;;;;;;4993512;28;90615;-72
2023/07/28 01:51:41;;;;;;;36.83;14.55;;;;;;;;;;4989707;28;89772;-72
2023/07/28 01:54:07;;;;;;;27.92;12.82;;;;;;;;;;4994812;28;89476;-73
2023/07/28 01:56:34;;;;;;;25.77;12.23;;;;;;;;;;4999792;28;91154;-74
2023/07/28 01:59:00;;;;;;;41.80;14.85;;;;;;;;;;4991748;28;90188;-74
2023/07/28 02:01:31;;;;;;;33.92;13.70;;;;;;;;;;4987177;28;90824;-74
2023/07/28 02:03:57;;;;;;;40.67;13.50;;;;;;;;;;4992823;28;89881;-72
2023/07/28 02:06:24;;;;;;;37.78;13.98;;;;;;;;;;4991540;28;89161;-71
2023/07/28 02:08:50;;;;;;;33.25;13.73;;;;;;;;;;4994065;28;89369;-71
2023/07/28 02:11:16;;;;;;;45.05;15.23;;;;;;;;;;4991195;28;89118;-72
2023/07/28 02:13:43;;;;;;;36.45;13.77;;;;;;;;;;4992818;28;90031;-75
2023/07/28 02:16:09;;;;;;;36.30;14.43;;;;;;;;;;4995037;28;90024;-73
2023/07/28 02:18:36;;;;;;;29.15;14.00;;;;;;;;;;4987381;28;89700;-72
2023/07/28 02:21:02;;;;;;;37.63;15.13;;;;;;;;;;4988086;28;90600;-72
2023/07/28 02:23:28;;;;;;;39.47;14.93;;;;;;;;;;4993621;28;89109;-71
2023/07/28 02:25:55;;;;;;;39.65;16.13;;;;;;;;;;4990708;28;90062;-71
2023/07/28 02:28:21;;;;;;;47.55;17.23;;;;;;;;;;4994298;28;89554;-72
2023/07/28 02:30:48;;;;;;;43.85;16.88;;;;;;;;;;4993541;28;89716;-71
2023/07/28 02:33:14;;;;;;;48.33;16.10;;;;;;;;;;4988957;28;90248;-71
2023/07/28 02:35:40;;;;;;;48.40;16.65;;;;;;;;;;4991707;28;89301;-71
2023/07/28 02:38:07;;;;;;;37.60;15.90;;;;;;;;;;4996748;28;89104;-71
2023/07/28 02:40:34;;;;;;;52.80;18.70;;;;;;;;;;4990183;28;90478;-72
2023/07/28 02:43:00;;;;;;;48.05;18.42;;;;;;;;;;4992371;28;90134;-72
2023/07/28 02:45:26;;;;;;;35.50;16.52;;;;;;;;;;4988454;28;91716;-71
2023/07/28 02:47:53;;;;;;;47.38;18.17;;;;;;;;;;4984985;28;89637;-72
2023/07/28 02:50:19;;;;;;;41.63;17.00;;;;;;;;;;4988521;28;90095;-72
2023/07/28 02:52:46;;;;;;;49.05;18.48;;;;;;;;;;4992215;28;91131;-72
2023/07/28 02:55:12;;;;;;;48.05;16.02;;;;;;;;;;4991413;28;91171;-71
2023/07/28 02:57:38;;;;;;;53.00;17.70;;;;;;;;;;4988436;28;89426;-72
2023/07/28 03:00:07;;;;;;;41.60;17.73;;;;;;;;;;4997094;28;91179;-72
2023/07/28 03:02:33;;;;;;;50.88;17.60;;;;;;;;;;4993108;28;89740;-72
2023/07/28 03:05:00;;;;;;;48.67;17.55;;;;;;;;;;4989856;28;89744;-72
2023/07/28 03:07:26;;;;;;;50.03;17.90;;;;;;;;;;4990378;28;89793;-72
2023/07/28 03:09:53;;;;;;;62.65;17.67;;;;;;;;;;4990678;28;89365;-72
2023/07/28 03:12:19;;;;;;;45.38;16.88;;;;;;;;;;4991126;28;89966;-71
2023/07/28 03:14:45;;;;;;;55.35;17.90;;;;;;;;;;4991050;28;90053;-72
2023/07/28 03:17:12;;;;;;;59.50;18.27;;;;;;;;;;4987717;28;89052;-72
2023/07/28 03:19:38;;;;;;;57.88;18.65;;;;;;;;;;4991844;28;90369;-72
2023/07/28 03:22:04;;;;;;;62.83;20.25;;;;;;;;;;4993391;28;89808;-73
2023/07/28 03:24:31;;;;;;;62.17;19.30;;;;;;;;;;4990733;28;91108;-73
2023/07/28 03:26:57;;;;;;;50.55;18.65;;;;;;;;;;4991710;28;90445;-72
2023/07/28 03:29:23;;;;;;;63.28;19.95;;;;;;;;;;4989186;28;89768;-72
2023/07/28 03:31:50;;;;;;;62.92;20.70;;;;;;;;;;4991961;28;91660;-73
2023/07/28 03:34:17;;;;;;;59.55;19.23;;;;;;;;;;4990697;28;89576;-72
2023/07/28 03:36:43;;;;;;;59.60;20.02;;;;;;;;;;4987057;28;89049;-73
2023/07/28 03:39:10;;;;;;;66.25;21.23;;;;;;;;;;4989366;28;90388;-73
2023/07/28 03:41:36;;;;;;;64.88;19.75;;;;;;;;;;4992868;28;89623;-74
2023/07/28 03:44:02;;;;;;;64.47;19.50;;;;;;;;;;4991692;28;89229;-72
2023/07/28 03:46:29;;;;;;;68.43;21.50;;;;;;;;;;4988176;28;89621;-72
2023/07/28 03:48:57;;;;;;;59.33;20.38;;;;;;;;;;4991059;28;89328;-71
2023/07/28 03:51:24;;;;;;;61.67;21.38;;;;;;;;;;4992756;28;90557;-72
2023/07/28 03:53:50;;;;;;;77.82;21.27;;;;;;;;;;4989317;28;89590;-72
2023/07/28 03:56:16;;;;;;;73.97;22.52;;;;;;;;;;4990731;28;89190;-72
2023/07/28 03:58:43;;;;;;;63.63;20.35;;;;;;;;;;4992848;28;89991;-73
2023/07/28 04:01:09;;;;;;;62.03;21.88;;;;;;;;;;4991840;28;89605;-72
2023/07/28 04:03:38;;;;;;;57.88;20.17;;;;;;;;;;4987806;28;89433;-71
2023/07/28 04:06:11;;;;;;;61.88;21.02;;;;;;;;;;4994814;28;90741;-71
2023/07/28 04:08:38;;;;;;;70.63;23.13;;;;;;;;;;4990038;28;89156;-71
2023/07/28 04:11:04;;;;;;;76.70;21.75;;;;;;;;;;4990624;28;90048;-72
2023/07/28 04:13:31;;;;;;;72.15;23.27;;;;;;;;;;4992726;28;89552;-72
2023/07/28 04:15:57;;;;;;;58.55;22.20;;;;;;;;;;4993336;28;90676;-72
2023/07/28 04:18:24;;;;;;;64.75;21.95;;;;;;;;;;4990391;28;90052;-72
2023/07/28 04:20:50;;;;;;;77.75;22.25;;;;;;;;;;4990837;28;90481;-71
2023/07/28 04:23:16;;;;;;;72.63;22.80;;;;;;;;;;4992816;28;89041;-72
2023/07/28 04:25:43;;;;;;;72.57;23.65;;;;;;;;;;4991103;28;89823;-72
2023/07/28 04:28:09;;;;;;;74.32;22.85;;;;;;;;;;4989275;28;89330;-72
2023/07/28 04:30:36;;;;;;;63.38;21.77;;;;;;;;;;4991834;28;89275;-73
2023/07/28 04:33:02;;;;;;;72.80;23.42;;;;;;;;;;4990162;28;90611;-73
2023/07/28 04:35:29;;;;;;;76.28;22.27;;;;;;;;;;4995085;28;90114;-73
2023/07/28 04:37:56;;;;;;;64.25;21.35;;;;;;;;;;4992507;28;91090;-73
2023/07/28 04:40:22;;;;;;;67.85;22.38;;;;;;;;;;4995386;28;89990;-73
2023/07/28 04:42:52;;;;;;;72.05;22.63;;;;;;;;;;4993471;28;89650;-73
2023/07/28 04:45:19;;;;;;;72.63;22.73;;;;;;;;;;4990465;28;89231;-73
2023/07/28 04:47:45;;;;;;;67.28;22.70;;;;;;;;;;4995405;28;89476;-73
2023/07/28 04:50:11;;;;;;;70.80;23.15;;;;;;;;;;4994509;28;90046;-75
2023/07/28 04:52:38;;;;;;;75.88;22.45;;;;;;;;;;4988153;28;89595;-73
2023/07/28 04:55:04;;;;;;;82.50;24.08;;;;;;;;;;4990821;28;89019;-73
2023/07/28 04:57:31;;;;;;;73.38;23.48;;;;;;;;;;4994379;28;90012;-74
2023/07/28 04:59:57;;;;;;;66.13;22.45;;;;;;;;;;4991836;28;89915;-75
2023/07/28 05:02:24;;;;;;;67.25;23.33;;;;;;;;;;4994706;28;89162;-75
2023/07/28 05:04:50;;;;;;;73.57;23.20;;;;;;;;;;4990952;28;90815;-74
2023/07/28 05:07:16;;;;;;;77.05;22.17;;;;;;;;;;4994058;28;89323;-74
2023/07/28 05:09:44;;;;;;;64.38;21.75;;;;;;;;;;4993649;28;89655;-74
2023/07/28 05:12:11;;;;;;;66.90;22.33;;;;;;;;;;4991783;28;89579;-74
2023/07/28 05:14:37;;;;;;;71.47;23.02;;;;;;;;;;4992692;28;90483;-74
2023/07/28 05:17:03;;;;;;;66.03;21.95;;;;;;;;;;4989721;28;91257;-74
2023/07/28 05:19:31;;;;;;;54.50;20.98;;;;;;;;;;4989174;28;89750;-74
2023/07/28 05:21:58;;;;;;;54.03;21.90;;;;;;;;;;4996032;28;90045;-73
2023/07/28 05:24:24;;;;;;;63.03;20.85;;;;;;;;;;4993533;28;90026;-73
2023/07/28 05:26:50;;;;;;;64.80;22.20;;;;;;;;;;4995133;28;89617;-73
2023/07/28 05:29:17;;;;;;;62.65;22.17;;;;;;;;;;4992332;28;89441;-73
2023/07/28 05:31:43;;;;;;;51.53;20.38;;;;;;;;;;4998874;28;90358;-74
2023/07/28 05:34:12;;;;;;;57.92;21.02;;;;;;;;;;4995518;28;89151;-74
2023/07/28 05:36:38;;;;;;;63.47;21.35;;;;;;;;;;4996102;28;90017;-74
2023/07/28 05:39:05;;;;;;;55.78;21.60;;;;;;;;;;4995840;28;89488;-75
2023/07/28 05:41:32;;;;;;;49.00;20.17;;;;;;;;;;4993598;28;89004;-74
2023/07/28 05:43:59;;;;;;;56.17;20.90;;;;;;;;;;4990474;28;90305;-75
2023/07/28 05:46:25;;;;;;;54.72;19.70;;;;;;;;;;4995676;28;89754;-75
2023/07/28 05:48:53;;;;;;;63.15;19.92;;;;;;;;;;4993711;28;89139;-75
2023/07/28 05:51:20;;;;;;;57.22;19.85;;;;;;;;;;4991562;28;91207;-75
2023/07/28 05:53:46;;;;;;;56.40;20.85;;;;;;;;;;4991170;28;89583;-75
2023/07/28 05:56:13;;;;;;;52.97;21.02;;;;;;;;;;4988233;28;88986;-75
2023/07/28 05:58:39;;;;;;;55.20;20.38;;;;;;;;;;4992396;28;90739;-73
2023/07/28 06:01:05;;;;;;;52.72;19.90;;;;;;;;;;4987755;28;89195;-73
2023/07/28 06:03:32;;;;;;;55.25;20.75;;;;;;;;;;4987530;28;89977;-74
2023/07/28 06:05:58;;;;;;;55.67;21.30;;;;;;;;;;4991280;28;90225;-73
2023/07/28 06:08:25;;;;;;;50.40;20.15;;;;;;;;;;4991783;28;89491;-73
2023/07/28 06:10:51;;;;;;;50.63;19.02;;;;;;;;;;4987529;28;90493;-74
2023/07/28 06:13:18;;;;;;;51.53;20.73;;;;;;;;;;4991111;28;89879;-74
2023/07/28 06:15:44;;;;;;;59.17;21.38;;;;;;;;;;4991407;28;91089;-73
2023/07/28 06:18:11;;;;;;;47.08;19.17;;;;;;;;;;4992752;28;90267;-73
2023/07/28 06:20:37;;;;;;;49.47;19.58;;;;;;;;;;4990334;28;89715;-73
2023/07/28 06:23:04;;;;;;;49.03;19.90;;;;;;;;;;4986357;28;89964;-73
2023/07/28 06:25:30;;;;;;;43.13;19.20;;;;;;;;;;4990230;28;91973;-73
2023/07/28 06:27:56;;;;;;;43.05;19.08;;;;;;;;;;4991729;28;89344;-73
2023/07/28 06:30:23;;;;;;;47.92;19.40;;;;;;;;;;4993411;28;90158;-73
2023/07/28 06:32:49;;;;;;;44.30;19.90;;;;;;;;;;4992978;28;89451;-74
2023/07/28 06:35:16;;;;;;;46.00;20.15;;;;;;;;;;4996721;28;90963;-73
2023/07/28 06:37:42;;;;;;;48.40;19.75;;;;;;;;;;4992964;28;89536;-73
2023/07/28 06:40:09;;;;;;;46.17;19.85;;;;;;;;;;4993732;28;89083;-71
2023/07/28 06:42:36;;;;;;;47.70;19.67;;;;;;;;;;4992617;28;89121;-71
2023/07/28 06:45:03;;;;;;;45.55;19.80;;;;;;;;;;4992034;28;89535;-72
2023/07/28 06:47:29;;;;;;;42.22;19.67;;;;;;;;;;4988493;28;89575;-72
2023/07/28 06:49:56;;;;;;;45.33;20.00;;;;;;;;;;4986496;28;89754;-72
2023/07/28 06:52:22;;;;;;;42.28;19.67;;;;;;;;;;4986229;28;89721;-71
2023/07/28 06:54:49;;;;;;;47.10;20.60;;;;;;;;;;4992562;28;89618;-71
2023/07/28 06:57:16;;;;;;;57.17;21.23;;;;;;;;;;4996178;28;89642;-72
2023/07/28 06:59:42;;;;;;;47.90;20.38;;;;;;;;;;4991771;28;89440;-71
2023/07/28 07:02:09;;;;;;;45.72;20.67;;;;;;;;;;4987127;28;90047;-71
2023/07/28 07:04:35;;;;;;;44.63;19.90;;;;;;;;;;4991381;28;89544;-71
2023/07/28 07:07:02;;;;;;;41.38;19.35;;;;;;;;;;4989976;28;89148;-72
2023/07/28 07:09:28;;;;;;;41.88;19.00;;;;;;;;;;4988211;28;90432;-72
2023/07/28 07:11:55;;;;;;;47.00;19.13;;;;;;;;;;4992653;28;89532;-72
2023/07/28 07:14:21;;;;;;;33.80;16.90;;;;;;;;;;4991254;28;89408;-72
2023/07/28 07:16:48;;;;;;;42.33;18.63;;;;;;;;;;4988782;28;90132;-72
2023/07/28 07:19:15;;;;;;;37.70;16.25;;;;;;;;;;4997353;28;89672;-72
2023/07/28 07:21:42;;;;;;;40.28;16.63;;;;;;;;;;4991566;28;90194;-72
2023/07/28 07:24:09;;;;;;;37.67;16.48;;;;;;;;;;4989595;28;89642;-72
2023/07/28 07:26:36;;;;;;;35.17;16.23;;;;;;;;;;4987239;28;89064;-72
2023/07/28 07:29:02;;;;;;;35.90;15.27;;;;;;;;;;4989779;28;90380;-72
2023/07/28 07:31:29;;;;;;;36.75;14.40;;;;;;;;;;4996286;28;89550;-71
2023/07/28 07:33:55;;;;;;;39.40;14.15;;;;;;;;;;4984476;28;89405;-72
2023/07/28 07:36:22;;;;;;;34.25;13.40;;;;;;;;;;4987567;28;90198;-72
2023/07/28 07:38:51;;;;;;;32.03;13.57;;;;;;;;;;4990517;28;89820;-72
2023/07/28 07:41:20;;;;;;;33.60;12.50;;;;;;;;;;4992640;28;89111;-75
2023/07/28 07:43:47;;;;;;;30.83;11.93;;;;;;;;;;4993948;28;89580;-75
2023/07/28 07:46:15;;;;;;;36.50;12.23;;;;;;;;;;4992115;28;89115;-75
2023/07/28 07:48:41;;;;;;;31.80;12.95;;;;;;;;;;4994400;28;90538;-78
2023/07/28 07:51:08;;;;;;;31.63;13.02;;;;;;;;;;4994867;28;89546;-75
2023/07/28 07:53:36;;;;;;;30.42;11.77;;;;;;;;;;4992432;28;89165;-75
2023/07/28 07:56:03;;;;;;;32.20;11.95;;;;;;;;;;4989536;28;90068;-74
2023/07/28 07:58:29;;;;;;;26.25;10.73;;;;;;;;;;4993641;28;89897;-75
2023/07/28 08:00:56;;;;;;;24.35;10.30;;;;;;;;;;4988516;28;91209;-72
2023/07/28 08:03:22;;;;;;;25.70;10.32;;;;;;;;;;4995458;28;90443;-72
2023/07/28 08:05:48;;;;;;;23.90;10.27;;;;;;;;;;4985853;28;89613;-72
2023/07/28 08:08:16;;;;;;;30.65;10.70;;;;;;;;;;4991743;28;89991;-73
2023/07/28 08:10:43;;;;;;;22.90;9.45;;;;;;;;;;4999097;28;90729;-72
2023/07/28 08:13:10;;;;;;;29.77;9.73;;;;;;;;;;4994075;28;89016;-73
2023/07/28 08:15:36;;;;;;;23.98;9.55;;;;;;;;;;4993862;28;89196;-73
2023/07/28 08:18:03;;;;;;;28.00;8.85;;;;;;;;;;4996745;28;88104;-73
2023/07/28 08:20:30;;;;;;;24.13;9.25;;;;;;;;;;4996124;28;88988;-73
2023/07/28 08:22:57;;;;;;;33.72;8.65;;;;;;;;;;4995237;28;88923;-73
2023/07/28 08:25:23;;;;;;;30.75;9.27;;;;;;;;;;4996505;28;88175;-74
2023/07/28 08:27:50;;;;;;;21.30;8.00;;;;;;;;;;5002839;28;89675;-73
2023/07/28 08:30:16;;;;;;;24.85;8.45;;;;;;;;;;5001125;28;89392;-74
2023/07/28 08:32:43;;;;;;;23.60;8.70;;;;;;;;;;4993852;28;89805;-73
2023/07/28 08:35:10;;;;;;;20.40;7.88;;;;;;;;;;4998079;28;88114;-72
2023/07/28 08:37:36;;;;;;;21.95;7.55;;;;;;;;;;4983769;28;89457;-73
2023/07/28 08:40:04;;;;;;;19.27;8.02;;;;;;;;;;4987432;28;88520;-73
2023/07/28 08:42:35;;;;;;;24.77;7.50;;;;;;;;;;4996417;28;88190;-73
2023/07/28 08:45:04;;;;;;;25.20;7.50;;;;;;;;;;4997202;28;90166;-72
2023/07/28 08:47:31;;;;;;;18.98;6.80;;;;;;;;;;5001878;28;88844;-73
2023/07/28 08:49:57;;;;;;;14.80;6.53;;;;;;;;;;4998102;28;89484;-72
2023/07/28 08:52:24;;;;;;;18.45;6.38;;;;;;;;;;4997226;28;88986;-73
2023/07/28 08:54:51;;;;;;;14.63;5.65;;;;;;;;;;4997619;28;88101;-73
2023/07/28 08:57:19;;;;;;;15.98;5.93;;;;;;;;;;4996583;28;88969;-73
2023/07/28 08:59:48;;;;;;;19.40;5.30;;;;;;;;;;4998272;28;90111;-73
2023/07/28 09:02:16;;;;;;;14.23;5.38;;;;;;;;;;4997537;28;88141;-72
2023/07/28 09:04:43;;;;;;;11.63;4.22;;;;;;;;;;4998132;28;88817;-73
2023/07/28 09:07:09;;;;;;;20.55;4.72;;;;;;;;;;5007930;28;89194;-72
2023/07/28 09:09:40;;;;;;;7.97;3.95;;;;;;;;;;4997883;28;88668;-73
2023/07/28 09:12:08;;;;;;;16.48;4.25;;;;;;;;;;4997071;28;89712;-73
2023/07/28 09:14:36;;;;;;;12.27;4.03;;;;;;;;;;4997270;28;88085;-73
2023/07/28 09:17:06;;;;;;;12.93;4.72;;;;;;;;;;4994117;28;88777;-73
2023/07/28 09:19:32;;;;;;;11.80;4.53;;;;;;;;;;4993844;28;89425;-72
2023/07/28 09:21:59;;;;;;;14.98;4.45;;;;;;;;;;4997170;28;89312;-73
2023/07/28 09:24:31;;;;;;;12.15;4.68;;;;;;;;;;4999639;28;89807;-73
2023/07/28 09:26:58;;;;;;;10.07;4.20;;;;;;;;;;5001927;28;90271;-72
2023/07/28 09:29:26;;;;;;;14.20;5.47;;;;;;;;;;5000075;28;88205;-73
2023/07/28 09:31:52;;;;;;;15.20;5.40;;;;;;;;;;4997886;28;89447;-72
2023/07/28 09:34:28;;;;;;;14.75;4.45;;;;;;;;;;4996842;28;88104;-74
2023/07/28 09:36:55;;;;;;;10.88;4.40;;;;;;;;;;4995495;28;90058;-72
2023/07/28 09:39:22;;;;;;;11.85;4.30;;;;;;;;;;4993347;28;88910;-72
2023/07/28 09:41:48;;;;;;;13.85;4.40;;;;;;;;;;4999786;28;88100;-72
2023/07/28 09:44:15;;;;;;;15.13;5.03;;;;;;;;;;5002253;28;90342;-72
2023/07/28 09:46:47;;;;;;;12.82;4.30;;;;;;;;;;4999599;28;89751;-72
2023/07/28 09:49:14;;;;;;;9.95;4.30;;;;;;;;;;4997016;28;88332;-72
2023/07/28 09:51:46;;;;;;;13.23;4.50;;;;;;;;;;4999169;28;89103;-72
2023/07/28 09:54:16;;;;;;;14.60;4.15;;;;;;;;;;4998226;28;88925;-72
2023/07/28 09:56:45;;;;;;;17.35;3.45;;;;;;;;;;4999010;28;88112;-72
2023/07/28 09:59:12;;;;;;;6.38;3.38;;;;;;;;;;4996588;28;88984;-72
2023/07/28 10:01:39;;;;;;;13.07;4.32;;;;;;;;;;4996102;28;88878;-72
2023/07/28 10:04:06;;;;;;;12.00;4.32;;;;;;;;;;5005340;28;89530;-72
2023/07/28 10:06:33;;;;;;;12.80;3.58;;;;;;;;;;4992135;28;89001;-72
2023/07/28 10:09:00;;;;;;;9.75;4.00;;;;;;;;;;4995403;28;88173;-72
2023/07/28 10:11:27;;;;;;;8.57;3.53;;;;;;;;;;4995905;28;88926;-72
2023/07/28 10:13:54;;;;;;;9.57;3.10;;;;;;;;;;4998893;28;88958;-72
2023/07/28 10:16:29;;;;;;;8.18;3.00;;;;;;;;;;4997028;28;88706;-72
2023/07/28 10:18:56;;;;;;;6.70;3.47;;;;;;;;;;4997058;28;88470;-72
2023/07/28 10:21:27;;;;;;;9.27;3.28;;;;;;;;;;4998067;28;91338;-72
2023/07/28 10:23:55;;;;;;;6.88;3.38;;;;;;;;;;5001725;28;88692;-72
2023/07/28 10:26:30;;;;;;;8.07;3.75;;;;;;;;;;4995814;28;90748;-72
2023/07/28 10:29:07;;;;;;;8.30;4.18;;;;;;;;;;4994642;28;88432;-72
2023/07/28 10:31:34;;;;;;;10.05;4.22;;;;;;;;;;4996113;28;88723;-72
2023/07/28 10:34:00;;;;;;;9.35;4.32;;;;;;;;;;4998681;28;89005;-72
2023/07/28 10:36:27;;;;;;;7.97;4.28;;;;;;;;;;4996400;28;88662;-72
2023/07/28 10:39:00;;;;;;;12.95;4.32;;;;;;;;;;4995583;28;89024;-72
2023/07/28 10:41:26;;;;;;;10.55;4.72;;;;;;;;;;5001503;28;88128;-72
2023/07/28 10:43:53;;;;;;;10.48;4.65;;;;;;;;;;4996761;28;89257;-73
2023/07/28 10:46:21;;;;;;;14.32;5.32;;;;;;;;;;4996057;28;89011;-72
2023/07/28 10:48:48;;;;;;;11.63;5.10;;;;;;;;;;4995838;28;88216;-73
2023/07/28 10:51:21;;;;;;;15.38;6.50;;;;;;;;;;4995250;28;89688;-72
2023/07/28 10:53:51;;;;;;;16.33;5.75;;;;;;;;;;4995946;28;90145;-72
2023/07/28 10:56:18;;;;;;;10.93;6.32;;;;;;;;;;4999229;28;88958;-72
2023/07/28 10:58:45;;;;;;;13.75;5.82;;;;;;;;;;4995620;28;89918;-72
2023/07/28 11:01:11;;;;;;;13.25;6.57;;;;;;;;;;5004138;28;88354;-71
2023/07/28 11:03:39;;;;;;;13.38;6.35;;;;;;;;;;4995934;28;89055;-72
2023/07/28 11:06:06;;;;;;;19.13;6.70;;;;;;;;;;4990931;28;89054;-72
2023/07/28 11:08:33;;;;;;;16.60;7.20;;;;;;;;;;4996817;28;88980;-72
2023/07/28 11:10:59;;;;;;;19.15;7.75;;;;;;;;;;4996039;28;89557;-73
2023/07/28 11:13:27;;;;;;;12.82;7.13;;;;;;;;;;4994761;28;89864;-72
2023/07/28 11:16:07;;;;;;;17.15;7.90;;;;;;;;;;4990831;28;88890;-72
2023/07/28 11:18:33;;;;;;;17.20;7.97;;;;;;;;;;5001503;28;89441;-73
2023/07/28 11:21:00;;;;;;;15.68;7.18;;;;;;;;;;5000572;28;88062;-72
2023/07/28 11:23:27;;;;;;;11.55;6.90;;;;;;;;;;4995448;28;88772;-72
2023/07/28 11:25:53;;;;;;;15.45;7.03;;;;;;;;;;4995986;28;89005;-72
2023/07/28 11:28:20;;;;;;;14.43;6.30;;;;;;;;;;4994749;28;88244;-72
2023/07/28 11:30:47;;;;;;;13.13;6.43;;;;;;;;;;4995384;28;88856;-73
2023/07/28 11:33:14;;;;;;;21.75;6.93;;;;;;;;;;4992165;28;88514;-72
2023/07/28 11:35:43;;;;;;;15.13;8.00;;;;;;;;;;4995976;28;88149;-72
2023/07/28 11:38:10;;;;;;;18.43;7.80;;;;;;;;;;4999693;28;88903;-72
2023/07/28 11:40:37;;;;;;;13.45;7.38;;;;;;;;;;4997558;28;90032;-72
2023/07/28 11:43:04;;;;;;;16.17;6.47;;;;;;;;;;4998500;28;89514;-72
2023/07/28 11:45:30;;;;;;;15.93;7.40;;;;;;;;;;4998225;28;87959;-72
2023/07/28 11:48:00;;;;;;;14.20;7.25;;;;;;;;;;4999039;28;89223;-72
2023/07/28 11:50:28;;;;;;;15.68;6.82;;;;;;;;;;4998908;28;88866;-72
2023/07/28 11:52:54;;;;;;;12.48;6.72;;;;;;;;;;4997968;28;89071;-72
2023/07/28 11:55:22;;;;;;;15.25;6.25;;;;;;;;;;4998751;28;88177;-72
2023/07/28 11:57:49;;;;;;;13.30;5.38;;;;;;;;;;5011228;28;89228;-72
2023/07/28 12:00:26;;;;;;;11.95;5.03;;;;;;;;;;4998836;28;88982;-72
2023/07/28 12:03:00;;;;;;;14.15;5.82;;;;;;;;;;5001444;28;88311;-72
2023/07/28 12:05:28;;;;;;;17.25;6.40;;;;;;;;;;4997863;28;90131;-71
2023/07/28 12:07:54;;;;;;;14.35;6.18;;;;;;;;;;4998306;28;89041;-72
2023/07/28 12:10:21;;;;;;;14.35;6.78;;;;;;;;;;4999039;28;89626;-72
2023/07/28 12:12:50;;;;;;;10.77;5.55;;;;;;;;;;4997971;28;88965;-72
2023/07/28 12:15:20;;;;;;;13.67;5.20;;;;;;;;;;4998702;28;88240;-72
2023/07/28 12:18:08;;;;;;;13.68;6.50;;;;;;;;;;5005436;28;89048;-72
2023/07/28 12:20:39;;;;;;;15.68;5.97;;;;;;;;;;4998892;28;88005;-72
2023/07/28 12:23:06;;;;;;;20.20;5.57;;;;;;;;;;4997890;28;87830;-72
2023/07/28 12:25:36;;;;;;;;;;;;;;;;;;5001530;28;88124;-72
2023/07/28 12:28:02;;;;;;;11.50;6.93;;;;;;;;;;4998756;28;119186;-72
2023/07/28 12:30:29;;;;;;;17.00;6.53;;;;;;;;;;4997845;28;89072;-72
2023/07/28 12:32:55;;;;;;;5.55;3.83;;;;;;;;;;4997272;28;89424;-72
2023/07/28 12:35:26;;;;;;;4.77;3.07;;;;;;;;;;5003120;28;88581;-72
2023/07/28 12:38:12;;;;;;;5.80;3.65;;;;;;;;;;4994761;28;88592;-72
2023/07/28 12:40:42;;;;;;;10.98;4.45;;;;;;;;;;5006708;28;89083;-72
2023/07/28 12:43:11;;;;;;;8.90;4.43;;;;;;;;;;5000639;28;88155;-72
2023/07/28 12:45:57;;;;;;;9.05;4.80;;;;;;;;;;4999357;28;88204;-72
2023/07/28 12:48:26;;;;;;;9.98;4.68;;;;;;;;;;4995993;28;88453;-72
2023/07/28 12:50:53;;;;;;;7.95;5.72;;;;;;;;;;4998578;28;88034;-72
2023/07/28 12:53:22;;;;;;;8.80;4.40;;;;;;;;;;4997649;28;88006;-72
2023/07/28 12:55:49;;;;;;;6.15;3.55;;;;;;;;;;5004834;28;88967;-72
2023/07/28 12:58:18;;;;;;;4.10;3.43;;;;;;;;;;4998199;28;89363;-72
2023/07/28 13:00:47;;;;;;;8.17;4.33;;;;;;;;;;4997568;28;88932;-72
2023/07/28 13:03:16;;;;;;;10.27;4.50;;;;;;;;;;4993872;28;87978;-72
2023/07/28 13:05:43;;;;;;;8.38;4.50;;;;;;;;;;5009048;28;89443;-72
2023/07/28 13:08:10;;;;;;;11.57;4.10;;;;;;;;;;5001147;28;89139;-72
2023/07/28 13:10:36;;;;;;;8.27;4.22;;;;;;;;;;4997737;28;90183;-72
2023/07/28 13:13:05;;;;;;;13.23;5.30;;;;;;;;;;5002197;28;88131;-71
2023/07/28 13:15:38;;;;;;;8.13;4.72;;;;;;;;;;5000933;28;88701;-72
2023/07/28 13:18:05;;;;;;;8.15;4.43;;;;;;;;;;4998166;28;90004;-72
2023/07/28 13:20:31;;;;;;;8.40;4.82;;;;;;;;;;4996932;28;89922;-72
2023/07/28 13:22:58;;;;;;;4.53;4.03;;;;;;;;;;4996531;28;88215;-72
2023/07/28 13:25:24;;;;;;;10.95;4.95;;;;;;;;;;4997277;28;88386;-72
2023/07/28 13:27:51;;;;;;;6.18;4.95;;;;;;;;;;4996844;28;88843;-72
2023/07/28 13:30:19;;;;;;;7.50;5.18;;;;;;;;;;5000392;28;89914;-72
2023/07/28 13:32:46;;;;;;;6.07;5.20;;;;;;;;;;5001187;28;89071;-72
2023/07/28 13:35:14;;;;;;;7.60;4.95;;;;;;;;;;4997422;28;88125;-72
2023/07/28 13:37:41;;;;;;;7.50;5.07;;;;;;;;;;4997617;28;88325;-72
2023/07/28 13:40:07;;;;;;;7.28;4.68;;;;;;;;;;4997138;28;89012;-71
2023/07/28 13:42:37;;;;;;;14.45;5.75;;;;;;;;;;4997183;28;88066;-72
2023/07/28 13:45:04;;;;;;;9.70;5.43;;;;;;;;;;4991929;28;89353;-72
2023/07/28 13:47:30;;;;;;;7.68;5.03;;;;;;;;;;4988215;28;89421;-72
2023/07/28 13:49:57;;;;;;;10.85;4.93;;;;;;;;;;4989130;28;88198;-73
2023/07/28 13:52:23;;;;;;;11.50;5.35;;;;;;;;;;5003357;28;88061;-73
2023/07/28 13:54:49;;;;;;;12.20;5.00;;;;;;;;;;4998102;28;88188;-72
2023/07/28 13:57:19;;;;;;;10.75;4.95;;;;;;;;;;4995123;28;88563;-72
2023/07/28 13:59:45;;;;;;;6.40;4.63;;;;;;;;;;4991227;28;90029;-72
2023/07/28 14:02:12;;;;;;;11.45;5.55;;;;;;;;;;4994220;28;88139;-72
2023/07/28 14:04:38;;;;;;;11.93;5.00;;;;;;;;;;4996814;28;89084;-72
2023/07/28 14:07:05;;;;;;;8.13;5.13;;;;;;;;;;4994517;28;89024;-72
2023/07/28 14:09:31;;;;;;;21.88;5.93;;;;;;;;;;4992351;28;89266;-72
2023/07/28 14:11:58;;;;;;;11.52;5.25;;;;;;;;;;5004219;28;90682;-72
2023/07/28 14:14:24;;;;;;;9.45;5.30;;;;;;;;;;4997537;28;88868;-72
2023/07/28 14:16:50;;;;;;;5.85;3.80;;;;;;;;;;4997055;28;88836;-73
2023/07/28 14:19:17;;;;;;;6.07;4.53;;;;;;;;;;4987282;28;89139;-73
2023/07/28 14:21:44;;;;;;;10.50;4.63;;;;;;;;;;4993700;28;88273;-73
2023/07/28 14:24:10;;;;;;;6.53;4.50;;;;;;;;;;4989391;28;90239;-73
2023/07/28 14:26:38;;;;;;;9.48;5.32;;;;;;;;;;4995577;28;88348;-73